Time;durP1;ratioP1;P1;durP2;ratioP2;P2;SDS_P1;SDS_P2;PMS_P1;PMS_P2;Temp;Humidity;BMP_temperature;BMP_pressure;BME280_temperature;BME280_humidity;BME280_pressure;Samples;Min_cycle;Max_cycle;Signal;HPM_P1;HPM_P2
2023/02/08 00:00:40;;;;;;;93.78;69.82;;;;;;;-2.53;100.00;103133.78;5031314;28;20056;-80
2023/02/08 00:03:06;;;;;;;95.15;67.63;;;;;;;-2.67;100.00;103141.28;5032461;28;20457;-80
2023/02/08 00:05:33;;;;;;;101.90;71.97;;;;;;;-2.73;100.00;103137.19;5031324;28;20046;-82
2023/02/08 00:08:00;;;;;;;91.07;66.22;;;;;;;-2.78;100.00;103139.13;5032190;28;20037;-80
2023/02/08 00:10:28;;;;;;;89.07;66.53;;;;;;;-2.57;100.00;103143.47;5034505;28;20136;-80
2023/02/08 00:12:55;;;;;;;86.22;66.65;;;;;;;-2.70;100.00;103150.06;5033041;28;20418;-81
2023/02/08 00:15:22;;;;;;;90.63;66.28;;;;;;;-2.82;100.00;103150.53;5028899;28;20066;-81
2023/02/08 00:17:49;;;;;;;91.70;69.53;;;;;;;-2.70;100.00;103154.44;5032429;28;20100;-80
2023/02/08 00:20:16;;;;;;;94.28;70.38;;;;;;;-2.75;100.00;103149.41;5035983;28;20045;-81
2023/02/08 00:22:42;;;;;;;89.82;67.13;;;;;;;-2.72;100.00;103154.50;5037375;28;20103;-80
2023/02/08 00:25:10;;;;;;;99.20;69.18;;;;;;;-2.55;100.00;103156.41;5038141;28;20568;-80
2023/02/08 00:27:38;;;;;;;95.60;70.05;;;;;;;-2.53;100.00;103152.84;5038027;28;20053;-81
2023/02/08 00:30:06;;;;;;;95.00;73.15;;;;;;;-2.47;100.00;103159.56;5037766;28;20107;-80
2023/02/08 00:32:32;;;;;;;100.28;74.43;;;;;;;-2.70;100.00;103144.00;5037011;28;20095;-80
2023/02/08 00:34:59;;;;;;;102.22;72.47;;;;;;;-2.58;100.00;103149.56;5028742;28;20042;-81
2023/02/08 00:37:26;;;;;;;97.07;72.47;;;;;;;-2.53;100.00;103162.41;5034748;28;20179;-81
2023/02/08 00:39:52;;;;;;;106.22;77.03;;;;;;;-2.67;100.00;103155.16;5036670;28;20044;-81
2023/02/08 00:42:19;;;;;;;100.38;74.93;;;;;;;-2.68;100.00;103155.22;5036993;28;20499;-80
2023/02/08 00:44:47;;;;;;;101.78;73.95;;;;;;;-2.82;100.00;103153.97;5034453;28;20053;-81
2023/02/08 00:47:14;;;;;;;105.40;74.97;;;;;;;-2.71;100.00;103161.38;5033607;28;20529;-80
2023/02/08 00:49:41;;;;;;;98.13;71.40;;;;;;;-2.80;100.00;103162.59;5034671;28;20041;-80
2023/02/08 00:54:47;;;;;;;116.03;78.13;;;;;;;-2.69;100.00;103159.59;5099421;27;20395;-81
2023/02/08 00:57:14;;;;;;;110.40;76.15;;;;;;;-2.63;100.00;103163.66;5067321;28;20045;-81
2023/02/08 00:59:41;;;;;;;114.95;79.97;;;;;;;-2.70;100.00;103159.63;5060816;28;20045;-81
2023/02/08 01:02:08;;;;;;;109.10;75.60;;;;;;;-2.88;100.00;103167.22;5055337;28;20071;-81
2023/02/08 01:04:35;;;;;;;108.40;78.55;;;;;;;-2.86;100.00;103167.19;5056748;28;20580;-81
2023/02/08 01:07:01;;;;;;;120.60;81.45;;;;;;;-2.72;100.00;103187.44;5052469;28;20053;-81
2023/02/08 01:09:28;;;;;;;110.38;77.45;;;;;;;-2.79;100.00;103171.22;5065083;28;20052;-81
2023/02/08 01:11:56;;;;;;;105.55;77.65;;;;;;;-2.73;100.00;103191.81;5059129;28;20110;-81
2023/02/08 01:17:03;;;;;;;107.63;78.35;;;;;;;-2.81;100.00;103178.28;5084817;27;20382;-81
2023/02/08 01:19:30;;;;;;;111.75;74.07;;;;;;;-2.61;100.00;103180.09;5080173;28;20056;-80
2023/02/08 01:21:57;;;;;;;108.95;75.78;;;;;;;-2.60;100.00;103187.00;5081232;28;20056;-80
2023/02/08 01:24:24;;;;;;;110.43;77.50;;;;;;;-2.36;100.00;103179.94;5084520;28;20052;-81
2023/02/08 01:26:50;;;;;;;106.32;76.82;;;;;;;-2.48;100.00;103180.44;5078613;28;20111;-80
2023/02/08 01:29:17;;;;;;;106.22;73.00;;;;;;;-2.57;100.00;103190.31;5079048;28;20049;-81
2023/02/08 01:31:45;;;;;;;107.15;75.65;;;;;;;-2.57;100.00;103186.88;5078220;28;20052;-80
2023/02/08 01:34:13;;;;;;;103.63;75.90;;;;;;;-2.67;100.00;103188.97;5082344;28;20052;-80
2023/02/08 01:36:40;;;;;;;107.70;77.25;;;;;;;-2.68;100.00;103196.84;5076509;28;20173;-80
2023/02/08 01:39:08;;;;;;;115.90;78.90;;;;;;;-2.67;100.00;103191.56;5078811;28;20447;-81
2023/02/08 01:41:37;;;;;;;110.63;76.18;;;;;;;-2.74;100.00;103199.69;5075928;28;20045;-80
2023/02/08 01:44:29;;;;;;;108.53;76.78;;;;;;;-2.71;100.00;103203.00;5081041;28;20082;-80
2023/02/08 01:46:56;;;;;;;110.32;77.88;;;;;;;-2.46;100.00;103199.47;5074591;28;20140;-80
2023/02/08 01:49:27;;;;;;;114.30;78.03;;;;;;;-2.39;100.00;103203.50;5081335;28;20517;-80
2023/02/08 01:52:01;;;;;;;114.60;78.97;;;;;;;-2.38;100.00;103208.66;5082264;28;20056;-80
2023/02/08 01:54:31;;;;;;;113.97;82.47;;;;;;;-2.64;100.00;103201.84;5083149;28;20049;-81
2023/02/08 01:56:58;;;;;;;109.55;75.40;;;;;;;-2.47;100.00;103213.38;5087151;28;20048;-81
2023/02/08 01:59:29;;;;;;;109.43;75.90;;;;;;;-2.44;100.00;103215.88;5074724;28;20110;-81
2023/02/08 02:01:58;;;;;;;113.97;77.20;;;;;;;-2.60;100.00;103213.88;5082356;28;20102;-80
2023/02/08 02:04:27;;;;;;;111.18;79.43;;;;;;;-2.45;100.00;103220.22;5076858;28;20094;-80
2023/02/08 02:06:56;;;;;;;110.00;76.40;;;;;;;-2.50;100.00;103219.56;5065447;28;20563;-81
2023/02/08 02:09:28;;;;;;;114.00;78.47;;;;;;;-2.55;100.00;103237.09;5077758;28;20040;-80
2023/02/08 02:11:56;;;;;;;115.10;79.15;;;;;;;-2.43;100.00;103230.56;5077818;28;20099;-80
2023/02/08 02:14:23;;;;;;;111.22;75.57;;;;;;;-2.44;100.00;103236.69;5080869;28;20049;-80
2023/02/08 02:16:50;;;;;;;211.25;118.82;;;;;;;-2.76;100.00;103241.34;5077142;28;20126;-80
2023/02/08 02:19:26;;;;;;;179.23;106.68;;;;;;;-2.47;100.00;103247.22;5082347;28;20099;-81
2023/02/08 02:22:07;;;;;;;127.57;86.05;;;;;;;-2.39;100.00;103250.34;5075218;28;20105;-80
2023/02/08 02:25:06;;;;;;;117.50;80.88;;;;;;;-2.37;100.00;103256.34;5074698;28;20053;-81
2023/02/08 02:27:55;;;;;;;117.25;80.80;;;;;;;-2.53;100.00;103259.56;5063595;28;20057;-80
2023/02/08 02:30:56;;;;;;;105.93;75.05;;;;;;;-2.55;100.00;103260.50;5060815;28;20045;-80
2023/02/08 02:33:42;;;;;;;79.78;66.35;;;;;;;-2.49;100.00;103270.69;5052319;28;20056;-80
2023/02/08 02:36:19;;;;;;;80.88;67.85;;;;;;;-2.48;100.00;103274.13;5053613;28;20560;-80
2023/02/08 02:39:02;;;;;;;76.20;64.68;;;;;;;-2.51;100.00;103267.31;5064914;28;20049;-81
2023/02/08 02:44:35;;;;;;;63.65;57.15;;;;;;;-2.64;100.00;103276.47;5066298;28;20129;-81
2023/02/08 02:47:11;;;;;;;61.65;55.67;;;;;;;-2.59;100.00;103284.97;5066434;28;20044;-81
2023/02/08 02:49:47;;;;;;;62.88;56.88;;;;;;;-2.65;100.00;103275.63;5062621;28;20048;-80
2023/02/08 02:52:19;;;;;;;68.68;61.92;;;;;;;-2.67;100.00;103290.44;5055558;28;20053;-81
2023/02/08 02:54:49;;;;;;;65.88;59.65;;;;;;;-2.75;100.00;103287.31;5068612;28;20394;-80
2023/02/08 02:57:20;;;;;;;65.15;59.13;;;;;;;-2.55;100.00;103289.13;5063324;28;20507;-80
2023/02/08 02:59:47;;;;;;;62.75;57.13;;;;;;;-2.72;100.00;103291.50;5063987;28;20041;-80
2023/02/08 03:02:14;;;;;;;76.15;65.22;;;;;;;-2.90;100.00;103293.06;5066950;28;20110;-81
2023/02/08 03:04:51;;;;;;;64.45;58.78;;;;;;;-2.92;100.00;103294.84;5064125;28;20114;-80
2023/02/08 03:07:32;;;;;;;66.13;59.72;;;;;;;-2.97;100.00;103296.75;5051968;28;20131;-81
2023/02/08 03:10:13;;;;;;;77.20;64.90;;;;;;;-2.94;100.00;103310.50;5068428;28;20052;-80
2023/02/08 03:12:49;;;;;;;63.67;57.78;;;;;;;-3.03;100.00;103309.06;5063461;28;20043;-81
2023/02/08 03:15:23;;;;;;;64.25;58.55;;;;;;;-2.99;100.00;103317.63;5060942;28;20501;-81
2023/02/08 03:18:04;;;;;;;63.90;58.38;;;;;;;-2.96;100.00;103317.53;5068668;28;20109;-80
2023/02/08 03:20:37;;;;;;;64.25;58.53;;;;;;;-3.02;100.00;103318.59;5051443;28;20037;-80
2023/02/08 03:23:15;;;;;;;69.03;63.28;;;;;;;-3.01;100.00;103322.03;5059880;28;20095;-81
2023/02/08 03:25:50;;;;;;;70.68;64.88;;;;;;;-3.05;100.00;103317.84;5060732;28;20576;-80
2023/02/08 03:28:24;;;;;;;64.72;58.92;;;;;;;-3.08;100.00;103333.56;5059058;28;20075;-81
2023/02/08 03:30:59;;;;;;;62.65;57.00;;;;;;;-3.05;100.00;103329.09;5065950;28;20057;-80
2023/02/08 03:33:33;;;;;;;63.63;58.03;;;;;;;-3.12;100.00;103326.75;5065775;28;20103;-80
2023/02/08 03:36:06;;;;;;;62.88;57.22;;;;;;;-3.14;100.00;103329.44;5053795;28;20105;-80
2023/02/08 03:38:37;;;;;;;64.85;59.17;;;;;;;-3.05;100.00;103328.25;5052288;28;20055;-80
2023/02/08 03:41:09;;;;;;;64.88;59.28;;;;;;;-3.18;100.00;103325.22;5063481;28;20494;-81
2023/02/08 03:43:41;;;;;;;63.97;58.40;;;;;;;-3.20;100.00;103321.84;5060731;28;20135;-80
2023/02/08 03:46:13;;;;;;;57.83;52.80;;;;;;;-3.22;100.00;103331.44;5057607;28;20490;-81
2023/02/08 03:48:46;;;;;;;60.85;55.17;;;;;;;-3.22;100.00;103339.22;5061463;28;20051;-80
2023/02/08 03:51:16;;;;;;;61.78;55.40;;;;;;;-3.32;100.00;103337.84;5062375;28;20105;-80
2023/02/08 03:53:46;;;;;;;57.97;52.92;;;;;;;-3.30;100.00;103336.03;5060244;28;20053;-81
2023/02/08 03:56:18;;;;;;;60.15;54.78;;;;;;;-3.40;100.00;103327.69;5066233;28;20048;-80
2023/02/08 03:58:49;;;;;;;60.10;55.42;;;;;;;-3.27;100.00;103351.53;5060209;28;20433;-80
2023/02/08 04:01:22;;;;;;;61.65;56.33;;;;;;;-3.41;100.00;103341.59;5062427;28;20122;-80
2023/02/08 04:03:52;;;;;;;;;;;;;;;-3.36;100.00;103359.63;5067448;28;20106;-81
2023/02/08 04:06:20;;;;;;;63.97;58.58;;;;;;;-3.51;100.00;103346.25;5055233;28;20294;-81
2023/02/08 04:08:49;;;;;;;62.03;56.40;;;;;;;-3.42;100.00;103360.66;5056553;28;20125;-81
2023/02/08 04:12:01;;;;;;;55.05;50.38;;;;;;;-3.49;100.00;103361.78;5104643;27;20387;-81
2023/02/08 04:14:28;;;;;;;60.08;54.83;;;;;;;-3.42;100.00;103362.44;5068157;28;20473;-81
2023/02/08 04:16:55;;;;;;;61.25;56.00;;;;;;;-3.50;100.00;103373.09;5067189;28;20057;-81
2023/02/08 04:19:21;;;;;;;59.72;54.70;;;;;;;-3.53;100.00;103366.25;5067522;28;20045;-81
2023/02/08 04:21:48;;;;;;;57.47;52.22;;;;;;;-3.55;100.00;103373.22;5066742;28;20561;-81
2023/02/08 04:24:15;;;;;;;57.22;52.20;;;;;;;-3.68;100.00;103379.72;5066052;28;20095;-81
2023/02/08 04:26:42;;;;;;;59.72;54.33;;;;;;;-3.71;100.00;103387.63;5060809;28;20045;-81
2023/02/08 04:29:10;;;;;;;61.05;55.92;;;;;;;-3.66;100.00;103392.66;5065904;28;20083;-81
2023/02/08 04:31:36;;;;;;;58.70;53.55;;;;;;;-3.93;100.00;103382.22;5066106;28;20045;-81
2023/02/08 04:34:03;;;;;;;57.95;52.65;;;;;;;-4.02;100.00;103392.91;5066772;28;20053;-81
2023/02/08 04:36:30;;;;;;;60.60;55.03;;;;;;;-3.96;100.00;103398.75;5063250;28;20045;-81
2023/02/08 04:41:38;;;;;;;64.97;58.03;;;;;;;-4.15;100.00;103407.97;5085713;27;20421;-81
2023/02/08 04:44:04;;;;;;;66.38;59.60;;;;;;;-4.24;100.00;103414.25;5065546;28;20041;-80
2023/02/08 04:46:31;;;;;;;60.85;55.53;;;;;;;-4.29;100.00;103410.13;5061830;28;20136;-80
2023/02/08 04:48:58;;;;;;;58.85;53.55;;;;;;;-4.29;100.00;103413.56;5066602;28;20048;-80
2023/02/08 04:51:25;;;;;;;59.70;54.33;;;;;;;-4.32;100.00;103426.63;5066754;28;20509;-81
2023/02/08 04:56:46;;;;;;;57.97;53.05;;;;;;;-4.70;100.00;103428.50;5092133;27;20415;-81
2023/02/08 04:59:13;;;;;;;55.67;50.83;;;;;;;-4.74;100.00;103428.66;5058753;28;20103;-81
2023/02/08 05:01:40;;;;;;;55.55;50.95;;;;;;;-4.75;100.00;103437.28;5058806;28;20049;-81
2023/02/08 05:04:07;;;;;;;54.25;49.60;;;;;;;-4.96;100.00;103436.97;5055774;28;20491;-81
2023/02/08 05:06:33;;;;;;;56.03;51.08;;;;;;;-4.93;100.00;103451.56;5049181;28;20494;-83
2023/02/08 05:09:00;;;;;;;57.05;52.25;;;;;;;-5.13;100.00;103441.72;5038227;28;20091;-81
2023/02/08 05:11:27;;;;;;;57.42;52.67;;;;;;;-4.99;100.00;103452.59;5012948;28;20070;-81
2023/02/08 05:13:55;;;;;;;52.75;48.25;;;;;;;-5.09;100.00;103451.13;5016745;28;20523;-81
2023/02/08 05:16:22;;;;;;;55.42;50.65;;;;;;;-5.16;100.00;103457.34;5023552;28;20038;-81
2023/02/08 05:18:49;;;;;;;54.17;49.50;;;;;;;-5.20;100.00;103459.16;5017481;28;20053;-81
2023/02/08 05:21:15;;;;;;;58.10;51.67;;;;;;;-5.31;100.00;103463.75;5020428;28;20049;-82
2023/02/08 05:23:42;;;;;;;57.22;51.15;;;;;;;-5.50;100.00;103468.50;5017302;28;20050;-81
2023/02/08 05:26:10;;;;;;;59.30;53.10;;;;;;;-5.53;100.00;103474.59;5008202;28;20495;-81
2023/02/08 05:28:38;;;;;;;59.72;53.90;;;;;;;-5.82;100.00;103475.22;5014590;28;20050;-81
2023/02/08 05:31:11;;;;;;;55.45;49.78;;;;;;;-5.81;100.00;103479.53;5004167;28;20057;-82
2023/02/08 05:33:37;;;;;;;56.60;50.95;;;;;;;-6.01;100.00;103479.97;5016753;28;20061;-81
2023/02/08 05:36:05;;;;;;;56.28;50.88;;;;;;;-6.01;100.00;103477.38;5004709;28;20491;-81
2023/02/08 05:38:31;;;;;;;56.90;51.47;;;;;;;-5.97;100.00;103477.31;5021968;28;20049;-81
2023/02/08 05:40:58;;;;;;;53.60;48.88;;;;;;;-5.96;100.00;103487.66;5018587;28;20108;-81
2023/02/08 05:46:44;;;;;;;52.55;47.70;;;;;;;-5.95;100.00;103510.06;5073441;27;20788;-81
2023/02/08 05:49:11;;;;;;;53.92;48.97;;;;;;;-5.85;100.00;103511.53;5063116;28;20502;-81
2023/02/08 05:51:38;;;;;;;52.35;47.83;;;;;;;-6.40;100.00;103514.38;5063928;28;20115;-81
2023/02/08 05:54:05;;;;;;;54.67;49.58;;;;;;;-6.17;100.00;103511.34;5063701;28;20048;-81
2023/02/08 05:56:32;;;;;;;57.65;51.85;;;;;;;-6.40;100.00;103507.44;5059511;28;20492;-81
2023/02/08 06:02:01;;;;;;;57.33;51.45;;;;;;;-6.29;100.00;103530.56;5152689;27;20380;-83
2023/02/08 06:05:07;;;;;;;57.10;51.33;;;;;;;-6.15;100.00;103528.53;5152000;27;20396;-80
2023/02/08 06:07:34;;;;;;;54.25;49.30;;;;;;;-6.31;100.00;103532.31;5145362;27;20050;-80
2023/02/08 06:10:01;;;;;;;55.83;50.53;;;;;;;-5.98;100.00;103533.41;5146007;27;20401;-80
2023/02/08 06:12:28;;;;;;;57.88;52.00;;;;;;;-6.13;100.00;103533.69;5143004;27;20051;-81
2023/02/08 06:14:54;;;;;;;59.97;53.78;;;;;;;-5.89;100.00;103543.53;5141599;27;20118;-80
2023/02/08 06:17:21;;;;;;;60.03;53.45;;;;;;;-5.87;100.00;103540.91;5142226;27;20108;-81
2023/02/08 06:19:48;;;;;;;61.75;55.20;;;;;;;-6.26;100.00;103533.09;5118144;27;20115;-80
2023/02/08 06:22:16;;;;;;;64.68;57.67;;;;;;;-6.17;100.00;103538.09;5142582;27;20047;-81
2023/02/08 06:24:43;;;;;;;59.28;53.05;;;;;;;-5.75;100.00;103551.03;5144198;27;20064;-80
2023/02/08 06:27:09;;;;;;;59.00;53.17;;;;;;;-5.30;100.00;103550.94;5147767;27;20047;-80
2023/02/08 06:29:36;;;;;;;57.75;51.80;;;;;;;-5.25;100.00;103541.34;5144316;27;20047;-81
2023/02/08 06:32:03;;;;;;;59.97;53.83;;;;;;;-5.08;100.00;103540.97;5143301;27;20564;-81
2023/02/08 06:34:30;;;;;;;55.40;50.25;;;;;;;-4.84;100.00;103535.19;5141003;27;20047;-81
2023/02/08 06:36:58;;;;;;;59.22;53.72;;;;;;;-4.56;100.00;103546.63;5139225;27;20050;-80
2023/02/08 06:39:26;;;;;;;61.15;55.40;;;;;;;-4.44;100.00;103549.78;5147939;27;20078;-80
2023/02/08 06:41:53;;;;;;;71.47;63.75;;;;;;;-4.39;100.00;103547.91;5148407;27;20168;-80
2023/02/08 06:44:20;;;;;;;56.72;51.47;;;;;;;-4.22;100.00;103551.81;5151118;27;20096;-81
2023/02/08 06:46:47;;;;;;;54.80;49.80;;;;;;;-4.23;100.00;103544.91;5143984;27;20047;-80
2023/02/08 06:49:13;;;;;;;55.30;49.97;;;;;;;-3.95;100.00;103555.41;5137604;27;20036;-80
2023/02/08 06:51:40;;;;;;;53.33;48.78;;;;;;;-3.80;100.00;103561.91;5139391;27;20047;-81
2023/02/08 06:54:07;;;;;;;55.33;50.53;;;;;;;-3.72;100.00;103554.78;5136270;27;20492;-81
2023/02/08 06:56:35;;;;;;;55.58;50.22;;;;;;;-3.54;100.00;103556.84;5140413;27;20069;-81
2023/02/08 07:01:41;;;;;;;60.10;54.60;;;;;;;-3.37;100.00;103560.66;5105701;27;20409;-81
2023/02/08 07:04:08;;;;;;;57.15;52.10;;;;;;;-3.27;100.00;103565.56;5087081;28;20052;-81
2023/02/08 07:06:35;;;;;;;53.80;49.38;;;;;;;-3.03;100.00;103563.94;5084855;28;20075;-81
2023/02/08 07:09:03;;;;;;;55.28;50.47;;;;;;;-3.19;100.00;103569.66;5084961;28;20045;-81
2023/02/08 07:11:30;;;;;;;54.63;49.65;;;;;;;-3.12;100.00;103569.41;5085065;28;20109;-81
2023/02/08 07:13:56;;;;;;;54.90;50.38;;;;;;;-3.12;100.00;103571.16;5096231;28;20053;-81
2023/02/08 07:16:24;;;;;;;54.78;49.50;;;;;;;-3.02;100.00;103570.00;5085537;28;20044;-81
2023/02/08 07:18:52;;;;;;;54.08;49.53;;;;;;;-2.26;100.00;103581.41;5084463;28;20044;-81
2023/02/08 07:23:39;;;;;;;53.65;48.45;;;;;;;-2.55;100.00;103572.81;5081254;27;20389;-81
2023/02/08 07:26:08;;;;;;;57.03;51.85;;;;;;;-2.67;100.00;103571.47;5067978;28;20502;-81
2023/02/08 07:28:35;;;;;;;54.88;50.20;;;;;;;-2.24;100.00;103571.78;5063559;28;20099;-81
2023/02/08 07:31:06;;;;;;;56.38;51.60;;;;;;;-2.17;100.00;103581.09;5066803;28;20048;-81
2023/02/08 07:33:32;;;;;;;54.47;50.35;;;;;;;-1.66;100.00;103586.22;5067799;28;20080;-81
2023/02/08 07:35:59;;;;;;;55.20;51.15;;;;;;;-1.78;100.00;103591.88;5067804;28;20049;-82
2023/02/08 07:38:26;;;;;;;53.80;49.50;;;;;;;-1.66;100.00;103582.75;5071227;28;20429;-81
2023/02/08 07:41:00;;;;;;;55.53;50.90;;;;;;;-1.86;100.00;103581.72;5068499;28;20071;-81
2023/02/08 07:43:27;;;;;;;56.25;51.40;;;;;;;-2.16;100.00;103594.06;5060696;28;20057;-81
2023/02/08 07:45:54;;;;;;;55.53;51.22;;;;;;;-2.08;100.00;103586.00;5070445;28;20083;-81
2023/02/08 07:48:20;;;;;;;54.45;50.15;;;;;;;-2.05;100.00;103585.88;5067195;28;20137;-81
2023/02/08 07:50:47;;;;;;;52.60;48.65;;;;;;;-2.10;100.00;103591.25;5066732;28;20182;-81
2023/02/08 07:53:14;;;;;;;55.38;50.85;;;;;;;-2.50;100.00;103591.75;5068717;28;20041;-81
2023/02/08 07:55:41;;;;;;;55.97;51.35;;;;;;;-2.50;100.00;103593.50;5068078;28;20113;-82
2023/02/08 07:58:09;;;;;;;59.30;54.20;;;;;;;-2.45;100.00;103600.25;5063159;28;20503;-82
2023/02/08 08:00:36;;;;;;;54.15;49.78;;;;;;;-2.45;100.00;103602.88;5060013;28;20057;-82
2023/02/08 08:03:03;;;;;;;53.08;49.22;;;;;;;-2.32;100.00;103595.50;5049073;28;20041;-81
2023/02/08 08:05:29;;;;;;;56.70;52.40;;;;;;;-2.20;100.00;103604.66;5045582;28;20049;-82
2023/02/08 08:07:56;;;;;;;59.72;54.78;;;;;;;-2.47;100.00;103609.03;5048227;28;20057;-81
2023/02/08 08:10:23;;;;;;;58.60;53.92;;;;;;;-2.59;100.00;103608.50;5047868;28;20049;-81
2023/02/08 08:15:30;;;;;;;54.67;50.13;;;;;;;-2.42;100.00;103618.38;5074484;27;20402;-81
2023/02/08 08:17:57;;;;;;;55.97;51.45;;;;;;;-2.33;100.00;103614.59;5063539;28;20115;-80
2023/02/08 08:20:24;;;;;;;55.25;50.80;;;;;;;-2.33;100.00;103617.19;5066719;28;20106;-81
2023/02/08 08:22:51;;;;;;;52.65;48.50;;;;;;;-2.12;100.00;103628.66;5066555;28;20469;-81
2023/02/08 08:25:18;;;;;;;52.50;48.60;;;;;;;-2.31;100.00;103625.81;5065271;28;20079;-81
2023/02/08 08:27:44;;;;;;;53.83;49.72;;;;;;;-2.25;100.00;103632.59;5068854;28;20496;-81
2023/02/08 08:30:15;;;;;;;53.05;48.88;;;;;;;-2.27;100.00;103635.22;5066075;28;20080;-80
2023/02/08 08:32:43;;;;;;;53.55;49.47;;;;;;;-1.70;100.00;103641.09;5069247;28;20056;-80
2023/02/08 08:35:10;;;;;;;55.15;51.13;;;;;;;-2.05;100.00;103644.94;5071168;28;20040;-80
2023/02/08 08:37:37;;;;;;;53.58;49.60;;;;;;;-2.11;100.00;103638.19;5067686;28;20067;-81
2023/02/08 08:40:06;;;;;;;55.28;50.85;;;;;;;-2.26;100.00;103639.56;5071288;28;20045;-80
2023/02/08 08:42:33;;;;;;;54.05;49.90;;;;;;;-2.15;100.00;103645.25;5073370;28;20053;-81
2023/02/08 08:45:00;;;;;;;56.88;51.95;;;;;;;-2.40;100.00;103642.59;5071587;28;20052;-81
2023/02/08 08:47:27;;;;;;;55.42;51.03;;;;;;;-2.36;100.00;103641.63;5064170;28;20049;-81
2023/02/08 08:49:55;;;;;;;54.05;50.20;;;;;;;-1.81;100.00;103661.50;5068708;28;20052;-81
2023/02/08 08:52:22;;;;;;;54.85;50.65;;;;;;;-2.22;100.00;103648.09;5071425;28;20045;-80
2023/02/08 08:54:48;;;;;;;56.58;52.28;;;;;;;-1.32;100.00;103660.59;5073999;28;20067;-81
2023/02/08 08:57:16;;;;;;;55.22;51.03;;;;;;;-1.53;100.00;103657.00;5068811;28;20045;-81
2023/02/08 08:59:42;;;;;;;58.85;54.20;;;;;;;-1.54;100.00;103660.53;5067876;28;20048;-80
2023/02/08 09:02:12;;;;;;;55.72;51.40;;;;;;;-0.97;100.00;103664.50;5065081;28;20053;-81
2023/02/08 09:04:39;;;;;;;53.95;49.85;;;;;;;-1.47;100.00;103650.72;5069196;28;20071;-80
2023/02/08 09:07:09;;;;;;;53.83;49.55;;;;;;;-1.62;100.00;103645.13;5065251;28;20041;-81
2023/02/08 09:09:36;;;;;;;54.10;49.67;;;;;;;-1.95;100.00;103654.97;5071706;28;20048;-81
2023/02/08 09:12:03;;;;;;;55.85;50.83;;;;;;;-1.20;100.00;103659.28;5071563;28;20045;-81
2023/02/08 09:14:30;;;;;;;52.75;48.83;;;;;;;-1.25;100.00;103659.44;5073514;28;20049;-81
2023/02/08 09:16:57;;;;;;;55.50;51.28;;;;;;;-1.77;100.00;103673.50;5070576;28;20048;-81
2023/02/08 09:19:24;;;;;;;58.60;54.05;;;;;;;-1.69;100.00;103669.72;5066273;28;20110;-81
2023/02/08 09:21:50;;;;;;;54.60;50.63;;;;;;;-1.33;100.00;103668.44;5071608;28;20056;-80
2023/02/08 09:24:18;;;;;;;60.75;56.33;;;;;;;-1.66;100.00;103677.44;5065436;28;20118;-81
2023/02/08 09:26:45;;;;;;;54.13;50.35;;;;;;;-0.88;100.00;103670.25;5061486;28;20048;-80
2023/02/08 09:29:12;;;;;;;57.92;53.90;;;;;;;-0.68;100.00;103659.88;5058553;28;20045;-81
2023/02/08 09:31:40;;;;;;;60.22;55.55;;;;;;;-1.00;100.00;103666.34;5059058;28;20111;-81
2023/02/08 09:34:07;;;;;;;58.20;53.85;;;;;;;-0.93;100.00;103665.22;5059887;28;20051;-81
2023/02/08 09:36:37;;;;;;;60.92;56.80;;;;;;;-1.06;100.00;103663.97;5059027;28;20052;-80
2023/02/08 09:39:07;;;;;;;61.67;56.40;;;;;;;-1.08;100.00;103664.03;5059411;28;20046;-81
2023/02/08 09:41:52;;;;;;;58.28;53.75;;;;;;;-0.90;100.00;103659.88;5044803;28;20044;-80
2023/02/08 09:44:26;;;;;;;58.20;53.97;;;;;;;1.65;100.00;103656.53;5048539;28;20050;-81
2023/02/08 09:46:58;;;;;;;55.33;50.80;;;;;;;-1.16;100.00;103663.47;5054416;28;20049;-79
2023/02/08 09:49:31;;;;;;;58.28;53.83;;;;;;;-1.34;100.00;103661.53;5052877;28;20048;-80
2023/02/08 09:52:02;;;;;;;58.08;53.55;;;;;;;-1.41;100.00;103660.91;5045988;28;20069;-79
2023/02/08 09:54:33;;;;;;;55.85;51.38;;;;;;;-1.77;100.00;103669.13;5053813;28;20465;-79
2023/02/08 09:57:05;;;;;;;61.83;56.85;;;;;;;-1.81;100.00;103658.88;5053435;28;20053;-79
2023/02/08 09:59:35;;;;;;;61.63;56.55;;;;;;;-1.89;100.00;103662.59;5054432;28;20056;-79
2023/02/08 10:02:11;;;;;;;63.28;57.78;;;;;;;-1.90;100.00;103652.25;5051797;28;20053;-79
2023/02/08 10:04:48;;;;;;;58.83;54.35;;;;;;;-1.72;100.00;103663.78;5052772;28;20049;-79
2023/02/08 10:07:15;;;;;;;59.83;54.70;;;;;;;-1.84;100.00;103667.66;5051486;28;20069;-79
2023/02/08 10:09:42;;;;;;;58.35;53.55;;;;;;;-1.71;100.00;103668.06;5053414;28;20076;-79
2023/02/08 10:12:20;;;;;;;55.13;50.92;;;;;;;-1.92;100.00;103673.13;5052385;28;20521;-79
2023/02/08 10:15:02;;;;;;;61.70;56.50;;;;;;;-1.81;100.00;103670.16;5050481;28;20044;-79
2023/02/08 10:18:01;;;;;;;61.63;56.38;;;;;;;-2.19;100.00;103669.69;5053337;28;20072;-79
2023/02/08 10:20:38;;;;;;;61.90;56.65;;;;;;;-2.01;100.00;103670.81;5055809;28;20083;-79
2023/02/08 10:23:20;;;;;;;60.17;55.05;;;;;;;-2.16;100.00;103676.56;5059962;28;20098;-79
2023/02/08 10:25:55;;;;;;;;;;;;;;;-1.71;100.00;103673.28;5062512;28;20049;-79
2023/02/08 10:28:44;;;;;;;57.53;52.58;;;;;;;-2.28;100.00;103659.56;5052712;28;20313;-79
2023/02/08 10:31:21;;;;;;;55.55;50.97;;;;;;;-2.16;100.00;103661.78;5051431;28;20068;-79
2023/02/08 10:33:55;;;;;;;59.65;54.53;;;;;;;-2.11;100.00;103662.47;5041531;28;20050;-79
2023/02/08 10:36:27;;;;;;;62.70;56.33;;;;;;;-2.17;100.00;103656.63;5038751;28;20107;-79
2023/02/08 10:38:56;;;;;;;65.15;59.50;;;;;;;-2.33;100.00;103657.13;5045848;28;20114;-79
2023/02/08 10:41:28;;;;;;;61.40;56.03;;;;;;;-2.05;100.00;103656.22;5043473;28;20111;-78
2023/02/08 10:44:05;;;;;;;62.72;56.00;;;;;;;-1.92;100.00;103664.44;5049350;28;20052;-79
2023/02/08 10:46:38;;;;;;;62.63;57.20;;;;;;;-2.01;100.00;103651.75;5049975;28;20045;-79
2023/02/08 10:49:08;;;;;;;;;;;;;;;-1.90;100.00;103662.66;5039901;28;20489;-78
2023/02/08 10:51:35;;;;;;;54.35;49.78;;;;;;;-1.59;100.00;103653.75;5047987;28;19943;-78
2023/02/08 10:54:02;;;;;;;74.13;68.35;;;;;;;-1.87;100.00;103662.56;5046178;28;20053;-78
2023/02/08 10:56:41;;;;;;;66.28;61.03;;;;;;;-1.81;100.00;103657.13;5041366;28;20046;-78
2023/02/08 10:59:16;;;;;;;60.70;55.67;;;;;;;-1.47;100.00;103661.13;5045721;28;20563;-78
2023/02/08 11:01:45;;;;;;;65.28;59.75;;;;;;;-1.77;100.00;103648.28;5046807;28;20053;-79
2023/02/08 11:04:13;;;;;;;54.17;49.65;;;;;;;-1.70;100.00;103651.53;5044405;28;20044;-78
2023/02/08 11:06:42;;;;;;;55.97;51.05;;;;;;;-1.37;100.00;103659.88;5038203;28;20045;-79
2023/02/08 11:09:21;;;;;;;53.45;48.75;;;;;;;-1.51;100.00;103659.53;5045733;28;20041;-79
2023/02/08 11:11:51;;;;;;;54.55;49.60;;;;;;;-1.43;100.00;103650.53;5046298;28;20060;-78
2023/02/08 11:14:24;;;;;;;51.80;47.78;;;;;;;-1.12;100.00;103654.63;5043687;28;20053;-79
2023/02/08 11:16:52;;;;;;;51.67;47.47;;;;;;;-1.72;100.00;103651.59;5048438;28;20118;-78
2023/02/08 11:19:29;;;;;;;55.70;50.80;;;;;;;-1.95;100.00;103654.97;5044448;28;20562;-78
2023/02/08 11:21:57;;;;;;;58.10;53.15;;;;;;;-1.67;100.00;103659.22;5048796;28;20403;-78
2023/02/08 11:24:30;;;;;;;112.38;103.65;;;;;;;-1.32;100.00;103663.19;5042108;28;20076;-79
2023/02/08 11:26:57;;;;;;;;;;;;;;;-1.60;100.00;103663.34;5040024;28;20049;-79
2023/02/08 11:29:26;;;;;;;79.07;65.22;;;;;;;-1.89;100.00;103661.75;5038247;28;19921;-79
2023/02/08 11:31:59;;;;;;;56.17;51.33;;;;;;;-1.97;100.00;103653.34;5037546;28;20191;-78
2023/02/08 11:34:28;;;;;;;56.63;51.30;;;;;;;-2.06;100.00;103659.69;5037452;28;20045;-79
2023/02/08 11:39:21;;;;;;;58.72;53.25;;;;;;;-1.81;100.00;103653.69;5081860;27;20396;-78
2023/02/08 11:41:51;;;;;;;57.17;52.03;;;;;;;-1.87;100.00;103652.97;5080084;28;20040;-78
2023/02/08 11:44:23;;;;;;;61.33;55.80;;;;;;;-1.82;100.00;103649.34;5073067;28;20053;-79